sensor_id;sensor_type;location;lat;lon;timestamp;pressure;altitude;pressure_sealevel;temperature;humidity
29907;BME280;16776;50.958;10.994;2023-01-25T00:00:10;100416.56;;;-0.46;100.00
29907;BME280;16776;50.958;10.994;2023-01-25T00:02:37;100435.44;;;-0.39;100.00
29907;BME280;16776;50.958;10.994;2023-01-25T00:05:04;100428.63;;;-0.40;100.00
29907;BME280;16776;50.958;10.994;2023-01-25T00:07:30;100427.75;;;-0.41;100.00
29907;BME280;16776;50.958;10.994;2023-01-25T00:09:57;100435.34;;;-0.41;100.00
29907;BME280;16776;50.958;10.994;2023-01-25T00:12:23;100429.34;;;-0.43;100.00
29907;BME280;16776;50.958;10.994;2023-01-25T00:14:54;100431.94;;;-0.41;100.00
29907;BME280;16776;50.958;10.994;2023-01-25T00:17:21;100421.66;;;-0.44;100.00
29907;BME280;16776;50.958;10.994;2023-01-25T00:19:47;100426.72;;;-0.44;100.00
29907;BME280;16776;50.958;10.994;2023-01-25T00:22:14;100431.00;;;-0.43;100.00
29907;BME280;16776;50.958;10.994;2023-01-25T00:24:40;100427.59;;;-0.44;100.00
29907;BME280;16776;50.958;10.994;2023-01-25T00:27:07;100419.94;;;-0.45;100.00
29907;BME280;16776;50.958;10.994;2023-01-25T00:29:33;100419.00;;;-0.47;100.00
29907;BME280;16776;50.958;10.994;2023-01-25T00:32:28;100416.00;;;-0.39;100.00
29907;BME280;16776;50.958;10.994;2023-01-25T00:34:57;100418.22;;;-0.46;100.00
29907;BME280;16776;50.958;10.994;2023-01-25T00:37:28;100414.06;;;-0.44;100.00
29907;BME280;16776;50.958;10.994;2023-01-25T00:39:55;100407.06;;;-0.50;100.00
29907;BME280;16776;50.958;10.994;2023-01-25T00:42:21;100412.00;;;-0.53;100.00
29907;BME280;16776;50.958;10.994;2023-01-25T00:44:48;100405.22;;;-0.54;100.00
29907;BME280;16776;50.958;10.994;2023-01-25T00:47:16;100411.19;;;-0.52;100.00
29907;BME280;16776;50.958;10.994;2023-01-25T00:49:44;100410.19;;;-0.56;100.00
29907;BME280;16776;50.958;10.994;2023-01-25T00:52:11;100408.44;;;-0.57;100.00
29907;BME280;16776;50.958;10.994;2023-01-25T00:54:38;100404.94;;;-0.60;100.00
29907;BME280;16776;50.958;10.994;2023-01-25T00:57:04;100403.09;;;-0.63;100.00
29907;BME280;16776;50.958;10.994;2023-01-25T00:59:32;100405.50;;;-0.66;100.00
29907;BME280;16776;50.958;10.994;2023-01-25T01:01:58;100397.69;;;-0.70;100.00
29907;BME280;16776;50.958;10.994;2023-01-25T01:04:27;100402.03;;;-0.68;100.00
29907;BME280;16776;50.958;10.994;2023-01-25T01:06:54;100397.78;;;-0.69;100.00
29907;BME280;16776;50.958;10.994;2023-01-25T01:09:22;100399.59;;;-0.66;100.00
29907;BME280;16776;50.958;10.994;2023-01-25T01:11:49;100403.78;;;-0.67;100.00
29907;BME280;16776;50.958;10.994;2023-01-25T01:14:16;100405.56;;;-0.64;100.00
29907;BME280;16776;50.958;10.994;2023-01-25T01:16:43;100414.03;;;-0.64;100.00
29907;BME280;16776;50.958;10.994;2023-01-25T01:19:09;100408.16;;;-0.63;100.00
29907;BME280;16776;50.958;10.994;2023-01-25T01:21:37;100419.25;;;-0.61;100.00
29907;BME280;16776;50.958;10.994;2023-01-25T01:24:05;100417.50;;;-0.62;100.00
29907;BME280;16776;50.958;10.994;2023-01-25T01:26:31;100415.75;;;-0.63;100.00
29907;BME280;16776;50.958;10.994;2023-01-25T01:28:58;100406.50;;;-0.62;100.00
29907;BME280;16776;50.958;10.994;2023-01-25T01:31:25;100411.66;;;-0.61;100.00
29907;BME280;16776;50.958;10.994;2023-01-25T01:33:53;100411.72;;;-0.59;100.00
29907;BME280;16776;50.958;10.994;2023-01-25T01:36:21;100413.50;;;-0.57;100.00
29907;BME280;16776;50.958;10.994;2023-01-25T01:38:50;100415.25;;;-0.56;100.00
29907;BME280;16776;50.958;10.994;2023-01-25T01:41:17;100411.06;;;-0.55;100.00
29907;BME280;16776;50.958;10.994;2023-01-25T01:43:44;100406.88;;;-0.54;100.00
29907;BME280;16776;50.958;10.994;2023-01-25T01:46:14;100407.66;;;-0.56;100.00
29907;BME280;16776;50.958;10.994;2023-01-25T01:48:44;100411.78;;;-0.58;100.00
29907;BME280;16776;50.958;10.994;2023-01-25T01:51:20;100407.53;;;-0.59;100.00
29907;BME280;16776;50.958;10.994;2023-01-25T01:53:53;100394.53;;;-0.66;100.00
29907;BME280;16776;50.958;10.994;2023-01-25T01:56:27;100408.25;;;-0.61;100.00
29907;BME280;16776;50.958;10.994;2023-01-25T01:58:56;100392.03;;;-0.65;100.00
29907;BME280;16776;50.958;10.994;2023-01-25T02:01:24;100396.91;;;-0.69;100.00
29907;BME280;16776;50.958;10.994;2023-01-25T02:03:50;100396.78;;;-0.72;100.00
29907;BME280;16776;50.958;10.994;2023-01-25T02:06:24;100394.16;;;-0.74;100.00
29907;BME280;16776;50.958;10.994;2023-01-25T02:08:53;100387.16;;;-0.79;100.00
29907;BME280;16776;50.958;10.994;2023-01-25T02:11:21;100397.03;;;-0.84;100.00
29907;BME280;16776;50.958;10.994;2023-01-25T02:13:48;100393.69;;;-0.84;100.00
29907;BME280;16776;50.958;10.994;2023-01-25T02:16:16;100381.88;;;-0.84;100.00
29907;BME280;16776;50.958;10.994;2023-01-25T02:18:44;100376.75;;;-0.85;100.00
29907;BME280;16776;50.958;10.994;2023-01-25T02:21:11;100379.34;;;-0.84;100.00
29907;BME280;16776;50.958;10.994;2023-01-25T02:23:42;100371.91;;;-0.81;100.00
29907;BME280;16776;50.958;10.994;2023-01-25T02:26:14;100369.38;;;-0.81;100.00
29907;BME280;16776;50.958;10.994;2023-01-25T02:28:46;100365.25;;;-0.79;100.00
29907;BME280;16776;50.958;10.994;2023-01-25T02:31:14;100362.59;;;-0.82;100.00
29907;BME280;16776;50.958;10.994;2023-01-25T02:33:40;100364.31;;;-0.81;100.00
29907;BME280;16776;50.958;10.994;2023-01-25T02:36:21;100357.97;;;-0.73;100.00
29907;BME280;16776;50.958;10.994;2023-01-25T02:38:52;100360.34;;;-0.76;100.00
29907;BME280;16776;50.958;10.994;2023-01-25T02:41:26;100347.84;;;-0.73;100.00
29907;BME280;16776;50.958;10.994;2023-01-25T02:43:55;100352.75;;;-0.76;100.00
29907;BME280;16776;50.958;10.994;2023-01-25T02:46:24;100348.72;;;-0.72;100.00
29907;BME280;16776;50.958;10.994;2023-01-25T02:48:53;100349.56;;;-0.72;100.00
29907;BME280;16776;50.958;10.994;2023-01-25T02:51:21;100343.66;;;-0.72;100.00
29907;BME280;16776;50.958;10.994;2023-01-25T02:53:48;100338.44;;;-0.75;100.00
29907;BME280;16776;50.958;10.994;2023-01-25T02:56:14;100336.69;;;-0.76;100.00
29907;BME280;16776;50.958;10.994;2023-01-25T02:58:43;100337.66;;;-0.74;100.00
29907;BME280;16776;50.958;10.994;2023-01-25T03:01:10;100328.31;;;-0.75;100.00
29907;BME280;16776;50.958;10.994;2023-01-25T03:03:37;100312.28;;;-0.76;100.00
29907;BME280;16776;50.958;10.994;2023-01-25T03:06:05;100307.09;;;-0.79;100.00
29907;BME280;16776;50.958;10.994;2023-01-25T03:08:31;100316.69;;;-0.72;100.00
29907;BME280;16776;50.958;10.994;2023-01-25T03:10:59;100314.16;;;-0.72;100.00
29907;BME280;16776;50.958;10.994;2023-01-25T03:13:27;100319.22;;;-0.72;100.00
29907;BME280;16776;50.958;10.994;2023-01-25T03:16:00;100310.00;;;-0.70;100.00
29907;BME280;16776;50.958;10.994;2023-01-25T03:18:28;100305.63;;;-0.74;100.00
29907;BME280;16776;50.958;10.994;2023-01-25T03:20:55;100299.69;;;-0.74;100.00
29907;BME280;16776;50.958;10.994;2023-01-25T03:23:21;100301.44;;;-0.73;100.00
29907;BME280;16776;50.958;10.994;2023-01-25T03:25:48;100295.44;;;-0.75;100.00
29907;BME280;16776;50.958;10.994;2023-01-25T03:28:15;100294.72;;;-0.73;100.00
29907;BME280;16776;50.958;10.994;2023-01-25T03:30:41;100290.56;;;-0.71;100.00
29907;BME280;16776;50.958;10.994;2023-01-25T03:33:09;100282.97;;;-0.71;100.00
29907;BME280;16776;50.958;10.994;2023-01-25T03:35:36;100277.72;;;-0.75;100.00
29907;BME280;16776;50.958;10.994;2023-01-25T03:38:02;100277.66;;;-0.77;100.00
29907;BME280;16776;50.958;10.994;2023-01-25T03:40:29;100274.13;;;-0.80;100.00
29907;BME280;16776;50.958;10.994;2023-01-25T03:42:55;100279.91;;;-0.83;100.00
29907;BME280;16776;50.958;10.994;2023-01-25T03:45:22;100273.94;;;-0.85;100.00
29907;BME280;16776;50.958;10.994;2023-01-25T03:47:48;100275.53;;;-0.87;100.00
29907;BME280;16776;50.958;10.994;2023-01-25T03:50:16;100278.75;;;-0.89;100.00
29907;BME280;16776;50.958;10.994;2023-01-25T03:52:43;100278.56;;;-0.94;100.00
29907;BME280;16776;50.958;10.994;2023-01-25T03:55:12;100279.34;;;-0.95;100.00
29907;BME280;16776;50.958;10.994;2023-01-25T03:57:39;100271.75;;;-0.95;100.00
29907;BME280;16776;50.958;10.994;2023-01-25T04:00:07;100266.44;;;-1.01;100.00
29907;BME280;16776;50.958;10.994;2023-01-25T04:02:34;100275.75;;;-1.00;100.00
29907;BME280;16776;50.958;10.994;2023-01-25T04:05:01;100279.06;;;-1.01;100.00
29907;BME280;16776;50.958;10.994;2023-01-25T04:07:29;100274.03;;;-1.01;100.00
29907;BME280;16776;50.958;10.994;2023-01-25T04:09:55;100267.97;;;-1.05;100.00
29907;BME280;16776;50.958;10.994;2023-01-25T04:12:22;100269.63;;;-1.05;100.00
29907;BME280;16776;50.958;10.994;2023-01-25T04:14:48;100274.69;;;-1.05;100.00
29907;BME280;16776;50.958;10.994;2023-01-25T04:17:15;100262.75;;;-1.08;100.00
29907;BME280;16776;50.958;10.994;2023-01-25T04:19:41;100260.16;;;-1.09;100.00
29907;BME280;16776;50.958;10.994;2023-01-25T04:22:08;100270.13;;;-1.12;100.00
29907;BME280;16776;50.958;10.994;2023-01-25T04:24:36;100259.00;;;-1.16;100.00
29907;BME280;16776;50.958;10.994;2023-01-25T04:27:02;100260.47;;;-1.21;100.00
29907;BME280;16776;50.958;10.994;2023-01-25T04:29:29;100237.06;;;-1.34;100.00
29907;BME280;16776;50.958;10.994;2023-01-25T04:31:56;100246.66;;;-1.27;100.00
29907;BME280;16776;50.958;10.994;2023-01-25T04:34:22;100247.47;;;-1.28;100.00
29907;BME280;16776;50.958;10.994;2023-01-25T04:36:49;100243.28;;;-1.28;100.00
29907;BME280;16776;50.958;10.994;2023-01-25T04:39:15;100246.75;;;-1.26;100.00
29907;BME280;16776;50.958;10.994;2023-01-25T04:41:44;100236.72;;;-1.24;100.00
29907;BME280;16776;50.958;10.994;2023-01-25T04:44:11;100240.13;;;-1.24;100.00
29907;BME280;16776;50.958;10.994;2023-01-25T04:46:37;100240.25;;;-1.21;100.00
29907;BME280;16776;50.958;10.994;2023-01-25T04:49:04;100247.97;;;-1.18;100.00
29907;BME280;16776;50.958;10.994;2023-01-25T04:51:30;100238.06;;;-1.13;100.00
29907;BME280;16776;50.958;10.994;2023-01-25T04:53:57;100233.16;;;-1.10;100.00
29907;BME280;16776;50.958;10.994;2023-01-25T04:56:23;100229.97;;;-1.06;100.00
29907;BME280;16776;50.958;10.994;2023-01-25T04:58:52;100229.28;;;-1.02;100.00
29907;BME280;16776;50.958;10.994;2023-01-25T05:01:18;100228.50;;;-1.01;100.00
29907;BME280;16776;50.958;10.994;2023-01-25T05:03:45;100234.59;;;-0.98;100.00
29907;BME280;16776;50.958;10.994;2023-01-25T05:06:11;100228.78;;;-0.95;100.00
29907;BME280;16776;50.958;10.994;2023-01-25T05:08:38;100229.72;;;-0.93;100.00
29907;BME280;16776;50.958;10.994;2023-01-25T05:11:04;100229.81;;;-0.91;100.00
29907;BME280;16776;50.958;10.994;2023-01-25T05:13:31;100235.84;;;-0.88;100.00
29907;BME280;16776;50.958;10.994;2023-01-25T05:15:59;100235.84;;;-0.88;100.00
29907;BME280;16776;50.958;10.994;2023-01-25T05:18:25;100236.72;;;-0.87;100.00
29907;BME280;16776;50.958;10.994;2023-01-25T05:20:55;100234.19;;;-0.68;100.00
29907;BME280;16776;50.958;10.994;2023-01-25T05:23:22;100232.06;;;-0.40;100.00
29907;BME280;16776;50.958;10.994;2023-01-25T05:25:48;100224.19;;;-0.06;100.00
29907;BME280;16776;50.958;10.994;2023-01-25T05:28:32;100224.59;;;0.24;100.00
29907;BME280;16776;50.958;10.994;2023-01-25T05:31:02;100222.03;;;0.45;100.00
29907;BME280;16776;50.958;10.994;2023-01-25T05:33:28;100224.06;;;0.53;100.00
29907;BME280;16776;50.958;10.994;2023-01-25T05:35:55;100221.69;;;0.58;100.00
29907;BME280;16776;50.958;10.994;2023-01-25T05:38:23;100224.31;;;0.59;100.00
29907;BME280;16776;50.958;10.994;2023-01-25T05:40:49;100219.13;;;0.56;100.00
29907;BME280;16776;50.958;10.994;2023-01-25T05:43:16;100218.91;;;0.50;100.00
29907;BME280;16776;50.958;10.994;2023-01-25T05:45:42;100214.44;;;0.45;100.00
29907;BME280;16776;50.958;10.994;2023-01-25T05:48:10;100215.91;;;0.40;100.00
29907;BME280;16776;50.958;10.994;2023-01-25T05:50:37;100213.03;;;0.31;100.00
29907;BME280;16776;50.958;10.994;2023-01-25T05:53:03;100216.94;;;0.22;100.00
29907;BME280;16776;50.958;10.994;2023-01-25T05:55:30;100215.75;;;0.14;100.00
29907;BME280;16776;50.958;10.994;2023-01-25T05:57:56;100206.97;;;0.06;100.00
29907;BME280;16776;50.958;10.994;2023-01-25T06:00:23;100208.47;;;0.01;100.00
29907;BME280;16776;50.958;10.994;2023-01-25T06:02:49;100216.56;;;-0.07;100.00
29907;BME280;16776;50.958;10.994;2023-01-25T06:05:17;100215.50;;;-0.12;100.00
29907;BME280;16776;50.958;10.994;2023-01-25T06:07:44;100209.19;;;-0.22;100.00
29907;BME280;16776;50.958;10.994;2023-01-25T06:10:11;100215.66;;;-0.29;100.00
29907;BME280;16776;50.958;10.994;2023-01-25T06:12:40;100212.19;;;-0.31;100.00
29907;BME280;16776;50.958;10.994;2023-01-25T06:15:07;100214.41;;;-0.38;100.00
29907;BME280;16776;50.958;10.994;2023-01-25T06:17:34;100213.28;;;-0.45;100.00
29907;BME280;16776;50.958;10.994;2023-01-25T06:20:01;100213.88;;;-0.50;100.00
29907;BME280;16776;50.958;10.994;2023-01-25T06:22:28;100215.50;;;-0.52;100.00
29907;BME280;16776;50.958;10.994;2023-01-25T06:24:55;100211.09;;;-0.57;100.00
29907;BME280;16776;50.958;10.994;2023-01-25T06:27:22;100219.56;;;-0.56;100.00
29907;BME280;16776;50.958;10.994;2023-01-25T06:29:48;100209.84;;;-0.66;100.00
29907;BME280;16776;50.958;10.994;2023-01-25T06:32:16;100219.22;;;-0.64;100.00
29907;BME280;16776;50.958;10.994;2023-01-25T06:34:44;100224.22;;;-0.65;100.00
29907;BME280;16776;50.958;10.994;2023-01-25T06:37:11;100198.00;;;-0.86;100.00
29907;BME280;16776;50.958;10.994;2023-01-25T06:39:39;100225.88;;;-0.66;100.00
29907;BME280;16776;50.958;10.994;2023-01-25T06:42:06;100226.69;;;-0.67;100.00
29907;BME280;16776;50.958;10.994;2023-01-25T06:44:32;100232.63;;;-0.66;100.00
29907;BME280;16776;50.958;10.994;2023-01-25T06:46:59;100224.16;;;-0.67;100.00
29907;BME280;16776;50.958;10.994;2023-01-25T06:49:26;100219.03;;;-0.68;100.00
29907;BME280;16776;50.958;10.994;2023-01-25T06:51:53;100219.09;;;-0.67;100.00
29907;BME280;16776;50.958;10.994;2023-01-25T06:54:20;100224.94;;;-0.68;100.00
29907;BME280;16776;50.958;10.994;2023-01-25T06:56:48;100231.75;;;-0.67;100.00
29907;BME280;16776;50.958;10.994;2023-01-25T06:59:14;100224.94;;;-0.68;100.00
29907;BME280;16776;50.958;10.994;2023-01-25T07:01:41;100224.94;;;-0.68;100.00
29907;BME280;16776;50.958;10.994;2023-01-25T07:04:09;100225.66;;;-0.70;100.00
29907;BME280;16776;50.958;10.994;2023-01-25T07:06:37;100225.22;;;-0.81;100.00
29907;BME280;16776;50.958;10.994;2023-01-25T07:09:05;100220.75;;;-0.86;100.00
29907;BME280;16776;50.958;10.994;2023-01-25T07:11:32;100212.03;;;-0.93;100.00
29907;BME280;16776;50.958;10.994;2023-01-25T07:14:00;100216.94;;;-0.96;100.00
29907;BME280;16776;50.958;10.994;2023-01-25T07:18:54;100201.88;;;-1.12;100.00
29907;BME280;16776;50.958;10.994;2023-01-25T07:21:22;100179.22;;;-1.28;100.00
29907;BME280;16776;50.958;10.994;2023-01-25T07:23:49;100194.75;;;-1.21;100.00
29907;BME280;16776;50.958;10.994;2023-01-25T07:26:18;100197.16;;;-1.24;100.00
29907;BME280;16776;50.958;10.994;2023-01-25T07:28:46;100188.34;;;-1.32;100.00
29907;BME280;16776;50.958;10.994;2023-01-25T07:31:14;100194.94;;;-1.35;100.00
29907;BME280;16776;50.958;10.994;2023-01-25T07:33:42;100198.84;;;-1.42;100.00
29907;BME280;16776;50.958;10.994;2023-01-25T07:36:09;100191.09;;;-1.45;100.00
29907;BME280;16776;50.958;10.994;2023-01-25T07:38:36;100168.50;;;-1.60;100.00
29907;BME280;16776;50.958;10.994;2023-01-25T07:41:03;100187.44;;;-1.52;100.00
29907;BME280;16776;50.958;10.994;2023-01-25T07:43:30;100183.31;;;-1.50;100.00
29907;BME280;16776;50.958;10.994;2023-01-25T07:46:00;100188.38;;;-1.50;100.00
29907;BME280;16776;50.958;10.994;2023-01-25T07:48:28;100192.63;;;-1.49;100.00
29907;BME280;16776;50.958;10.994;2023-01-25T07:50:57;100185.09;;;-1.47;100.00
29907;BME280;16776;50.958;10.994;2023-01-25T07:53:37;100176.72;;;-1.46;100.00
29907;BME280;16776;50.958;10.994;2023-01-25T07:56:04;100179.47;;;-1.42;100.00
29907;BME280;16776;50.958;10.994;2023-01-25T07:58:30;100189.72;;;-1.39;100.00
29907;BME280;16776;50.958;10.994;2023-01-25T08:00:57;100177.00;;;-1.40;100.00
29907;BME280;16776;50.958;10.994;2023-01-25T08:03:32;100180.03;;;-1.29;100.00
29907;BME280;16776;50.958;10.994;2023-01-25T08:05:59;100181.84;;;-1.27;100.00
29907;BME280;16776;50.958;10.994;2023-01-25T08:08:26;100173.59;;;-1.23;100.00
29907;BME280;16776;50.958;10.994;2023-01-25T08:10:52;100176.19;;;-1.21;100.00
29907;BME280;16776;50.958;10.994;2023-01-25T08:13:19;100174.53;;;-1.21;100.00
29907;BME280;16776;50.958;10.994;2023-01-25T08:15:52;100173.81;;;-1.18;100.00
29907;BME280;16776;50.958;10.994;2023-01-25T08:18:18;100178.72;;;-1.21;100.00
29907;BME280;16776;50.958;10.994;2023-01-25T08:20:46;100165.28;;;-1.20;100.00
29907;BME280;16776;50.958;10.994;2023-01-25T08:23:13;100170.13;;;-1.25;100.00
29907;BME280;16776;50.958;10.994;2023-01-25T08:25:39;100159.88;;;-1.28;100.00
29907;BME280;16776;50.958;10.994;2023-01-25T08:28:06;100156.47;;;-1.28;100.00
29907;BME280;16776;50.958;10.994;2023-01-25T08:30:33;100158.09;;;-1.30;100.00
29907;BME280;16776;50.958;10.994;2023-01-25T08:33:01;100157.41;;;-1.26;100.00
29907;BME280;16776;50.958;10.994;2023-01-25T08:35:27;100151.44;;;-1.28;100.00
29907;BME280;16776;50.958;10.994;2023-01-25T08:37:55;100149.13;;;-1.24;100.00
29907;BME280;16776;50.958;10.994;2023-01-25T08:40:22;100154.03;;;-1.27;100.00
29907;BME280;16776;50.958;10.994;2023-01-25T08:42:57;100150.13;;;-1.20;100.00
29907;BME280;16776;50.958;10.994;2023-01-25T08:45:24;100150.78;;;-1.24;100.00
29907;BME280;16776;50.958;10.994;2023-01-25T08:47:51;100145.06;;;-1.20;100.00
29907;BME280;16776;50.958;10.994;2023-01-25T08:50:17;100152.63;;;-1.20;100.00
29907;BME280;16776;50.958;10.994;2023-01-25T08:52:44;100148.53;;;-1.18;100.00
29907;BME280;16776;50.958;10.994;2023-01-25T08:55:12;100146.06;;;-1.17;100.00
29907;BME280;16776;50.958;10.994;2023-01-25T08:57:38;100156.13;;;-1.18;100.00
29907;BME280;16776;50.958;10.994;2023-01-25T09:00:09;100147.66;;;-1.19;100.00
29907;BME280;16776;50.958;10.994;2023-01-25T09:02:36;100147.31;;;-1.26;100.00
29907;BME280;16776;50.958;10.994;2023-01-25T09:05:03;100143.06;;;-1.27;100.00
29907;BME280;16776;50.958;10.994;2023-01-25T09:07:30;100133.69;;;-1.30;100.00
29907;BME280;16776;50.958;10.994;2023-01-25T09:10:02;100137.09;;;-1.29;100.00
29907;BME280;16776;50.958;10.994;2023-01-25T09:12:30;100132.94;;;-1.27;100.00
29907;BME280;16776;50.958;10.994;2023-01-25T09:14:56;100136.25;;;-1.28;100.00
29907;BME280;16776;50.958;10.994;2023-01-25T09:17:23;100138.06;;;-1.26;100.00
29907;BME280;16776;50.958;10.994;2023-01-25T09:19:49;100130.50;;;-1.26;100.00
29907;BME280;16776;50.958;10.994;2023-01-25T09:22:16;100130.69;;;-1.21;100.00
29907;BME280;16776;50.958;10.994;2023-01-25T09:24:42;100130.84;;;-1.18;100.00
29907;BME280;16776;50.958;10.994;2023-01-25T09:27:09;100131.69;;;-1.18;100.00
29907;BME280;16776;50.958;10.994;2023-01-25T09:29:37;100129.25;;;-1.16;100.00
29907;BME280;16776;50.958;10.994;2023-01-25T09:32:03;100130.16;;;-1.14;100.00
29907;BME280;16776;50.958;10.994;2023-01-25T09:34:30;100119.34;;;-1.12;100.00
29907;BME280;16776;50.958;10.994;2023-01-25T09:36:57;100084.00;;;-1.29;100.00
29907;BME280;16776;50.958;10.994;2023-01-25T09:39:23;100126.38;;;-1.05;100.00
29907;BME280;16776;50.958;10.994;2023-01-25T09:42:08;100121.66;;;-0.97;100.00
29907;BME280;16776;50.958;10.994;2023-01-25T09:44:49;100115.00;;;-0.95;100.00
29907;BME280;16776;50.958;10.994;2023-01-25T09:47:24;100111.66;;;-0.94;100.00
29907;BME280;16776;50.958;10.994;2023-01-25T09:50:06;100115.00;;;-0.95;100.00
29907;BME280;16776;50.958;10.994;2023-01-25T09:52:56;100105.66;;;-0.96;100.00
29907;BME280;16776;50.958;10.994;2023-01-25T09:55:27;100103.81;;;-1.00;100.00
29907;BME280;16776;50.958;10.994;2023-01-25T09:57:55;100096.09;;;-1.03;100.00
29907;BME280;16776;50.958;10.994;2023-01-25T10:00:30;100097.97;;;-0.99;100.00
29907;BME280;16776;50.958;10.994;2023-01-25T10:03:02;100095.44;;;-0.99;100.00
29907;BME280;16776;50.958;10.994;2023-01-25T10:05:35;100089.72;;;-0.95;100.00
29907;BME280;16776;50.958;10.994;2023-01-25T10:08:13;100102.56;;;-0.90;100.00
29907;BME280;16776;50.958;10.994;2023-01-25T10:10:45;100104.22;;;-0.91;100.00
29907;BME280;16776;50.958;10.994;2023-01-25T10:13:17;100094.22;;;-0.88;100.00
29907;BME280;16776;50.958;10.994;2023-01-25T10:15:48;100091.00;;;-0.84;100.00
29907;BME280;16776;50.958;10.994;2023-01-25T10:18:19;100085.13;;;-0.84;100.00
29907;BME280;16776;50.958;10.994;2023-01-25T10:20:52;100084.38;;;-0.82;100.00
29907;BME280;16776;50.958;10.994;2023-01-25T10:23:39;100071.88;;;-0.79;100.00
29907;BME280;16776;50.958;10.994;2023-01-25T10:26:14;100081.03;;;-0.81;100.00
29907;BME280;16776;50.958;10.994;2023-01-25T10:28:47;100050.03;;;-0.96;100.00
29907;BME280;16776;50.958;10.994;2023-01-25T10:31:19;100068.66;;;-0.75;100.00
29907;BME280;16776;50.958;10.994;2023-01-25T10:33:50;100057.66;;;-0.75;100.00
29907;BME280;16776;50.958;10.994;2023-01-25T10:36:22;100062.00;;;-0.73;100.00
29907;BME280;16776;50.958;10.994;2023-01-25T10:38:49;100051.75;;;-0.76;100.00
29907;BME280;16776;50.958;10.994;2023-01-25T10:41:26;100050.94;;;-0.75;100.00
29907;BME280;16776;50.958;10.994;2023-01-25T10:43:56;100035.50;;;-0.81;100.00
29907;BME280;16776;50.958;10.994;2023-01-25T10:46:51;100036.63;;;-0.74;100.00
29907;BME280;16776;50.958;10.994;2023-01-25T10:49:23;100036.72;;;-0.73;100.00
29907;BME280;16776;50.958;10.994;2023-01-25T10:51:52;100027.50;;;-0.71;100.00
29907;BME280;16776;50.958;10.994;2023-01-25T10:54:21;100027.25;;;-0.77;100.00
29907;BME280;16776;50.958;10.994;2023-01-25T10:56:51;100024.00;;;-0.74;100.00
29907;BME280;16776;50.958;10.994;2023-01-25T10:59:21;100020.72;;;-0.72;100.00
29907;BME280;16776;50.958;10.994;2023-01-25T11:01:51;99980.00;;;-0.99;100.00
29907;BME280;16776;50.958;10.994;2023-01-25T11:04:32;100019.16;;;-0.68;100.00
29907;BME280;16776;50.958;10.994;2023-01-25T11:07:00;100014.03;;;-0.70;100.00
29907;BME280;16776;50.958;10.994;2023-01-25T11:09:34;100014.44;;;-0.61;100.00
29907;BME280;16776;50.958;10.994;2023-01-25T11:12:03;100005.09;;;-0.62;100.00
29907;BME280;16776;50.958;10.994;2023-01-25T11:14:32;99991.72;;;-0.59;100.00
29907;BME280;16776;50.958;10.994;2023-01-25T11:17:02;99990.34;;;-0.51;100.00
29907;BME280;16776;50.958;10.994;2023-01-25T11:19:34;99979.59;;;-0.45;100.00
29907;BME280;16776;50.958;10.994;2023-01-25T11:22:03;99968.63;;;-0.46;100.00
29907;BME280;16776;50.958;10.994;2023-01-25T11:24:30;99975.38;;;-0.45;100.00
29907;BME280;16776;50.958;10.994;2023-01-25T11:27:18;99963.84;;;-0.38;100.00
29907;BME280;16776;50.958;10.994;2023-01-25T11:29:45;99957.66;;;-0.46;100.00
29907;BME280;16776;50.958;10.994;2023-01-25T11:32:32;99952.59;;;-0.46;100.00
29907;BME280;16776;50.958;10.994;2023-01-25T11:34:59;99946.66;;;-0.47;100.00
29907;BME280;16776;50.958;10.994;2023-01-25T11:37:51;99940.09;;;-0.42;100.00
29907;BME280;16776;50.958;10.994;2023-01-25T11:40:32;99933.06;;;-0.49;100.00
29907;BME280;16776;50.958;10.994;2023-01-25T11:43:09;99925.34;;;-0.52;100.00
29907;BME280;16776;50.958;10.994;2023-01-25T11:46:04;99922.81;;;-0.52;100.00
29907;BME280;16776;50.958;10.994;2023-01-25T11:48:47;99923.59;;;-0.54;100.00
29907;BME280;16776;50.958;10.994;2023-01-25T11:51:22;99913.41;;;-0.56;100.00
29907;BME280;16776;50.958;10.994;2023-01-25T11:54:07;99912.69;;;-0.52;100.00
29907;BME280;16776;50.958;10.994;2023-01-25T11:56:51;99905.97;;;-0.51;100.00
29907;BME280;16776;50.958;10.994;2023-01-25T11:59:30;99902.66;;;-0.50;100.00
29907;BME280;16776;50.958;10.994;2023-01-25T12:02:13;99907.03;;;-0.46;100.00
29907;BME280;16776;50.958;10.994;2023-01-25T12:04:54;99902.06;;;-0.43;100.00
29907;BME280;16776;50.958;10.994;2023-01-25T12:07:30;99877.53;;;-0.46;100.00
29907;BME280;16776;50.958;10.994;2023-01-25T12:10:06;99885.06;;;-0.47;100.00
29907;BME280;16776;50.958;10.994;2023-01-25T12:12:45;99856.66;;;-0.63;100.00
29907;BME280;16776;50.958;10.994;2023-01-25T12:15:26;99863.88;;;-0.49;100.00
29907;BME280;16776;50.958;10.994;2023-01-25T12:18:09;99857.16;;;-0.49;100.00
29907;BME280;16776;50.958;10.994;2023-01-25T12:20:59;99860.56;;;-0.48;100.00
29907;BME280;16776;50.958;10.994;2023-01-25T12:23:40;99852.09;;;-0.49;100.00
29907;BME280;16776;50.958;10.994;2023-01-25T12:26:18;99856.22;;;-0.51;100.00
29907;BME280;16776;50.958;10.994;2023-01-25T12:28:49;99845.25;;;-0.51;100.00
29907;BME280;16776;50.958;10.994;2023-01-25T12:31:22;99846.19;;;-0.49;100.00
29907;BME280;16776;50.958;10.994;2023-01-25T12:33:54;99850.44;;;-0.48;100.00
29907;BME280;16776;50.958;10.994;2023-01-25T12:36:26;99850.59;;;-0.44;100.00
29907;BME280;16776;50.958;10.994;2023-01-25T12:38:57;99842.19;;;-0.43;100.00
29907;BME280;16776;50.958;10.994;2023-01-25T12:41:36;99833.59;;;-0.48;100.00
29907;BME280;16776;50.958;10.994;2023-01-25T12:44:10;99840.66;;;-0.39;100.00